sensor_id;sensor_type;location;lat;lon;timestamp;P1;durP1;ratioP1;P2;durP2;ratioP2
15982;SDS011;14442;50.196;8.096;2023-05-10T00:00:37;0.97;;;0.43;;
15982;SDS011;14442;50.196;8.096;2023-05-10T00:03:03;1.30;;;0.40;;
15982;SDS011;14442;50.196;8.096;2023-05-10T00:05:31;0.40;;;0.40;;
15982;SDS011;14442;50.196;8.096;2023-05-10T00:07:58;0.33;;;0.30;;
15982;SDS011;14442;50.196;8.096;2023-05-10T00:10:25;0.50;;;0.40;;
15982;SDS011;14442;50.196;8.096;2023-05-10T00:12:51;0.33;;;0.30;;
15982;SDS011;14442;50.196;8.096;2023-05-10T00:15:18;0.83;;;0.30;;
15982;SDS011;14442;50.196;8.096;2023-05-10T00:17:45;0.40;;;0.20;;
15982;SDS011;14442;50.196;8.096;2023-05-10T00:20:11;1.33;;;0.30;;
15982;SDS011;14442;50.196;8.096;2023-05-10T00:22:39;0.30;;;0.20;;
15982;SDS011;14442;50.196;8.096;2023-05-10T00:25:07;1.40;;;0.40;;
15982;SDS011;14442;50.196;8.096;2023-05-10T00:27:34;0.20;;;0.20;;
15982;SDS011;14442;50.196;8.096;2023-05-10T00:30:01;0.67;;;0.30;;
15982;SDS011;14442;50.196;8.096;2023-05-10T00:32:28;0.87;;;0.40;;
15982;SDS011;14442;50.196;8.096;2023-05-10T00:34:55;0.60;;;0.27;;
15982;SDS011;14442;50.196;8.096;2023-05-10T00:37:22;0.30;;;0.30;;
15982;SDS011;14442;50.196;8.096;2023-05-10T00:39:50;0.33;;;0.30;;
15982;SDS011;14442;50.196;8.096;2023-05-10T00:42:16;0.80;;;0.30;;
15982;SDS011;14442;50.196;8.096;2023-05-10T00:44:43;0.23;;;0.20;;
15982;SDS011;14442;50.196;8.096;2023-05-10T00:47:11;0.77;;;0.30;;
15982;SDS011;14442;50.196;8.096;2023-05-10T00:49:38;0.20;;;0.20;;
15982;SDS011;14442;50.196;8.096;2023-05-10T00:52:05;0.20;;;0.20;;
15982;SDS011;14442;50.196;8.096;2023-05-10T00:54:32;1.10;;;0.40;;
15982;SDS011;14442;50.196;8.096;2023-05-10T00:57:00;0.60;;;0.20;;
15982;SDS011;14442;50.196;8.096;2023-05-10T00:59:27;1.13;;;0.20;;
15982;SDS011;14442;50.196;8.096;2023-05-10T01:01:54;0.33;;;0.33;;
15982;SDS011;14442;50.196;8.096;2023-05-10T01:04:21;1.03;;;0.30;;
15982;SDS011;14442;50.196;8.096;2023-05-10T01:06:50;0.43;;;0.20;;
15982;SDS011;14442;50.196;8.096;2023-05-10T01:09:17;1.03;;;0.30;;
15982;SDS011;14442;50.196;8.096;2023-05-10T01:11:44;0.97;;;0.20;;
15982;SDS011;14442;50.196;8.096;2023-05-10T01:14:12;0.53;;;0.30;;
15982;SDS011;14442;50.196;8.096;2023-05-10T01:16:40;0.20;;;0.20;;
15982;SDS011;14442;50.196;8.096;2023-05-10T01:19:11;0.47;;;0.40;;
15982;SDS011;14442;50.196;8.096;2023-05-10T01:21:43;0.30;;;0.17;;
15982;SDS011;14442;50.196;8.096;2023-05-10T01:24:31;0.47;;;0.20;;
15982;SDS011;14442;50.196;8.096;2023-05-10T01:27:31;0.10;;;0.10;;
15982;SDS011;14442;50.196;8.096;2023-05-10T01:30:25;0.30;;;0.20;;
15982;SDS011;14442;50.196;8.096;2023-05-10T01:33:10;0.50;;;0.20;;
15982;SDS011;14442;50.196;8.096;2023-05-10T01:35:43;0.30;;;0.10;;
15982;SDS011;14442;50.196;8.096;2023-05-10T01:38:18;0.53;;;0.10;;
15982;SDS011;14442;50.196;8.096;2023-05-10T01:40:52;0.17;;;0.10;;
15982;SDS011;14442;50.196;8.096;2023-05-10T01:43:30;0.20;;;0.20;;
15982;SDS011;14442;50.196;8.096;2023-05-10T01:46:03;0.37;;;0.10;;
15982;SDS011;14442;50.196;8.096;2023-05-10T01:48:37;0.30;;;0.20;;
15982;SDS011;14442;50.196;8.096;2023-05-10T01:51:06;0.20;;;0.20;;
15982;SDS011;14442;50.196;8.096;2023-05-10T01:53:34;0.10;;;0.10;;
15982;SDS011;14442;50.196;8.096;2023-05-10T01:56:03;0.20;;;0.20;;
15982;SDS011;14442;50.196;8.096;2023-05-10T01:58:31;0.10;;;0.10;;
15982;SDS011;14442;50.196;8.096;2023-05-10T02:01:01;0.10;;;0.10;;
15982;SDS011;14442;50.196;8.096;2023-05-10T02:03:30;0.13;;;0.13;;
15982;SDS011;14442;50.196;8.096;2023-05-10T02:05:59;0.20;;;0.10;;
15982;SDS011;14442;50.196;8.096;2023-05-10T02:08:27;0.13;;;0.10;;
15982;SDS011;14442;50.196;8.096;2023-05-10T02:10:55;0.10;;;0.10;;
15982;SDS011;14442;50.196;8.096;2023-05-10T02:13:23;0.10;;;0.10;;
15982;SDS011;14442;50.196;8.096;2023-05-10T02:15:50;1.40;;;0.13;;
15982;SDS011;14442;50.196;8.096;2023-05-10T02:18:18;0.10;;;0.10;;
15982;SDS011;14442;50.196;8.096;2023-05-10T02:20:46;0.37;;;0.00;;
15982;SDS011;14442;50.196;8.096;2023-05-10T02:23:15;0.10;;;0.10;;
15982;SDS011;14442;50.196;8.096;2023-05-10T02:25:44;0.10;;;0.10;;
15982;SDS011;14442;50.196;8.096;2023-05-10T02:28:11;0.50;;;0.10;;
15982;SDS011;14442;50.196;8.096;2023-05-10T02:30:40;0.73;;;0.10;;
15982;SDS011;14442;50.196;8.096;2023-05-10T02:33:08;0.10;;;0.10;;
15982;SDS011;14442;50.196;8.096;2023-05-10T02:35:35;0.10;;;0.10;;
15982;SDS011;14442;50.196;8.096;2023-05-10T02:38:04;0.10;;;0.10;;
15982;SDS011;14442;50.196;8.096;2023-05-10T02:40:33;0.10;;;0.10;;
15982;SDS011;14442;50.196;8.096;2023-05-10T02:43:02;0.43;;;0.27;;
15982;SDS011;14442;50.196;8.096;2023-05-10T02:45:31;0.40;;;0.20;;
15982;SDS011;14442;50.196;8.096;2023-05-10T02:48:00;0.10;;;0.10;;
15982;SDS011;14442;50.196;8.096;2023-05-10T02:50:28;1.00;;;0.10;;
15982;SDS011;14442;50.196;8.096;2023-05-10T02:52:59;0.10;;;0.10;;
15982;SDS011;14442;50.196;8.096;2023-05-10T02:55:31;0.00;;;0.00;;
15982;SDS011;14442;50.196;8.096;2023-05-10T02:58:02;0.10;;;0.10;;
15982;SDS011;14442;50.196;8.096;2023-05-10T03:00:29;0.10;;;0.10;;
15982;SDS011;14442;50.196;8.096;2023-05-10T03:02:57;0.27;;;0.00;;
15982;SDS011;14442;50.196;8.096;2023-05-10T03:05:23;0.00;;;0.00;;
15982;SDS011;14442;50.196;8.096;2023-05-10T03:07:50;0.03;;;0.03;;
15982;SDS011;14442;50.196;8.096;2023-05-10T03:10:18;0.10;;;0.10;;
15982;SDS011;14442;50.196;8.096;2023-05-10T03:12:50;0.10;;;0.10;;
15982;SDS011;14442;50.196;8.096;2023-05-10T03:15:25;0.20;;;0.00;;
15982;SDS011;14442;50.196;8.096;2023-05-10T03:18:01;0.10;;;0.10;;
15982;SDS011;14442;50.196;8.096;2023-05-10T03:20:35;0.00;;;0.00;;
15982;SDS011;14442;50.196;8.096;2023-05-10T03:23:04;0.20;;;0.10;;
15982;SDS011;14442;50.196;8.096;2023-05-10T03:25:33;0.10;;;0.10;;
15982;SDS011;14442;50.196;8.096;2023-05-10T03:28:02;0.07;;;0.07;;
15982;SDS011;14442;50.196;8.096;2023-05-10T03:30:30;0.33;;;0.00;;
15982;SDS011;14442;50.196;8.096;2023-05-10T03:32:58;0.00;;;0.00;;
15982;SDS011;14442;50.196;8.096;2023-05-10T03:35:30;0.10;;;0.10;;
15982;SDS011;14442;50.196;8.096;2023-05-10T03:37:57;0.10;;;0.10;;
15982;SDS011;14442;50.196;8.096;2023-05-10T03:40:24;0.03;;;0.03;;
15982;SDS011;14442;50.196;8.096;2023-05-10T03:42:53;0.10;;;0.10;;
15982;SDS011;14442;50.196;8.096;2023-05-10T03:45:21;0.20;;;0.10;;
15982;SDS011;14442;50.196;8.096;2023-05-10T03:47:48;0.10;;;0.10;;
15982;SDS011;14442;50.196;8.096;2023-05-10T03:50:15;0.00;;;0.00;;
15982;SDS011;14442;50.196;8.096;2023-05-10T03:52:41;0.10;;;0.10;;
15982;SDS011;14442;50.196;8.096;2023-05-10T03:55:08;0.00;;;0.00;;
15982;SDS011;14442;50.196;8.096;2023-05-10T03:57:35;0.10;;;0.03;;
15982;SDS011;14442;50.196;8.096;2023-05-10T04:00:02;0.43;;;0.20;;
15982;SDS011;14442;50.196;8.096;2023-05-10T04:02:30;0.03;;;0.03;;
15982;SDS011;14442;50.196;8.096;2023-05-10T04:04:57;0.10;;;0.10;;
15982;SDS011;14442;50.196;8.096;2023-05-10T04:07:23;0.10;;;0.10;;
15982;SDS011;14442;50.196;8.096;2023-05-10T04:09:50;0.00;;;0.00;;
15982;SDS011;14442;50.196;8.096;2023-05-10T04:12:17;0.00;;;0.00;;
15982;SDS011;14442;50.196;8.096;2023-05-10T04:14:43;0.03;;;0.03;;
15982;SDS011;14442;50.196;8.096;2023-05-10T04:17:10;0.00;;;0.00;;
15982;SDS011;14442;50.196;8.096;2023-05-10T04:19:38;2.77;;;0.50;;
15982;SDS011;14442;50.196;8.096;2023-05-10T04:22:05;0.10;;;0.10;;
15982;SDS011;14442;50.196;8.096;2023-05-10T04:24:31;0.10;;;0.10;;
15982;SDS011;14442;50.196;8.096;2023-05-10T04:26:58;0.10;;;0.10;;
15982;SDS011;14442;50.196;8.096;2023-05-10T04:29:25;0.07;;;0.00;;
15982;SDS011;14442;50.196;8.096;2023-05-10T04:31:52;0.10;;;0.10;;
15982;SDS011;14442;50.196;8.096;2023-05-10T04:34:20;0.10;;;0.10;;
15982;SDS011;14442;50.196;8.096;2023-05-10T04:36:48;0.00;;;0.00;;
15982;SDS011;14442;50.196;8.096;2023-05-10T04:39:14;0.10;;;0.10;;
15982;SDS011;14442;50.196;8.096;2023-05-10T04:41:41;0.47;;;0.10;;
15982;SDS011;14442;50.196;8.096;2023-05-10T04:44:07;0.10;;;0.10;;
15982;SDS011;14442;50.196;8.096;2023-05-10T04:46:34;0.10;;;0.10;;
15982;SDS011;14442;50.196;8.096;2023-05-10T04:49:01;1.97;;;0.10;;
15982;SDS011;14442;50.196;8.096;2023-05-10T04:51:28;0.10;;;0.10;;
15982;SDS011;14442;50.196;8.096;2023-05-10T04:53:55;0.03;;;0.03;;
15982;SDS011;14442;50.196;8.096;2023-05-10T04:56:22;0.50;;;0.10;;
15982;SDS011;14442;50.196;8.096;2023-05-10T04:58:49;0.17;;;0.10;;
15982;SDS011;14442;50.196;8.096;2023-05-10T05:01:17;0.57;;;0.10;;
15982;SDS011;14442;50.196;8.096;2023-05-10T05:03:44;0.07;;;0.07;;
15982;SDS011;14442;50.196;8.096;2023-05-10T05:06:11;0.20;;;0.10;;
15982;SDS011;14442;50.196;8.096;2023-05-10T05:08:37;0.10;;;0.10;;
15982;SDS011;14442;50.196;8.096;2023-05-10T05:11:05;0.97;;;0.10;;
15982;SDS011;14442;50.196;8.096;2023-05-10T05:13:32;0.10;;;0.10;;
15982;SDS011;14442;50.196;8.096;2023-05-10T05:16:00;4.10;;;0.20;;
15982;SDS011;14442;50.196;8.096;2023-05-10T05:18:27;5.13;;;0.30;;
15982;SDS011;14442;50.196;8.096;2023-05-10T05:20:53;1.33;;;0.20;;
15982;SDS011;14442;50.196;8.096;2023-05-10T05:23:20;4.60;;;0.70;;
15982;SDS011;14442;50.196;8.096;2023-05-10T05:25:49;2.80;;;0.20;;
15982;SDS011;14442;50.196;8.096;2023-05-10T05:28:18;2.30;;;0.40;;
15982;SDS011;14442;50.196;8.096;2023-05-10T05:30:45;1.70;;;0.30;;
15982;SDS011;14442;50.196;8.096;2023-05-10T05:33:12;1.80;;;0.30;;
15982;SDS011;14442;50.196;8.096;2023-05-10T05:35:40;1.40;;;0.10;;
15982;SDS011;14442;50.196;8.096;2023-05-10T05:38:07;2.67;;;0.50;;
15982;SDS011;14442;50.196;8.096;2023-05-10T05:40:34;0.43;;;0.10;;
15982;SDS011;14442;50.196;8.096;2023-05-10T05:43:01;2.33;;;0.20;;
15982;SDS011;14442;50.196;8.096;2023-05-10T05:45:29;1.30;;;0.17;;
15982;SDS011;14442;50.196;8.096;2023-05-10T05:47:56;3.03;;;0.27;;
15982;SDS011;14442;50.196;8.096;2023-05-10T05:50:22;1.33;;;0.20;;
15982;SDS011;14442;50.196;8.096;2023-05-10T05:52:49;1.60;;;0.20;;
15982;SDS011;14442;50.196;8.096;2023-05-10T05:55:16;0.60;;;0.10;;
15982;SDS011;14442;50.196;8.096;2023-05-10T05:57:42;0.90;;;0.20;;
15982;SDS011;14442;50.196;8.096;2023-05-10T06:00:09;1.63;;;0.30;;
15982;SDS011;14442;50.196;8.096;2023-05-10T06:02:38;1.83;;;0.20;;
15982;SDS011;14442;50.196;8.096;2023-05-10T06:05:05;5.27;;;0.30;;
15982;SDS011;14442;50.196;8.096;2023-05-10T06:07:32;1.00;;;0.20;;
15982;SDS011;14442;50.196;8.096;2023-05-10T06:09:59;2.30;;;0.20;;
15982;SDS011;14442;50.196;8.096;2023-05-10T06:12:26;5.53;;;0.30;;
15982;SDS011;14442;50.196;8.096;2023-05-10T06:14:52;1.03;;;0.30;;
15982;SDS011;14442;50.196;8.096;2023-05-10T06:17:19;3.47;;;0.40;;
15982;SDS011;14442;50.196;8.096;2023-05-10T06:19:47;6.80;;;0.30;;
15982;SDS011;14442;50.196;8.096;2023-05-10T06:22:14;2.53;;;0.20;;
15982;SDS011;14442;50.196;8.096;2023-05-10T06:24:41;2.40;;;0.40;;
15982;SDS011;14442;50.196;8.096;2023-05-10T06:27:08;1.80;;;0.23;;
15982;SDS011;14442;50.196;8.096;2023-05-10T06:29:35;3.07;;;0.30;;
15982;SDS011;14442;50.196;8.096;2023-05-10T06:32:01;2.63;;;0.37;;
15982;SDS011;14442;50.196;8.096;2023-05-10T06:34:28;4.50;;;0.37;;
15982;SDS011;14442;50.196;8.096;2023-05-10T06:36:56;1.87;;;0.37;;
15982;SDS011;14442;50.196;8.096;2023-05-10T06:39:23;2.27;;;0.27;;
15982;SDS011;14442;50.196;8.096;2023-05-10T06:41:50;5.53;;;0.53;;
15982;SDS011;14442;50.196;8.096;2023-05-10T06:44:17;2.23;;;0.30;;
15982;SDS011;14442;50.196;8.096;2023-05-10T06:46:43;4.07;;;0.60;;
15982;SDS011;14442;50.196;8.096;2023-05-10T06:49:10;2.77;;;0.50;;
15982;SDS011;14442;50.196;8.096;2023-05-10T06:51:37;4.10;;;0.30;;
15982;SDS011;14442;50.196;8.096;2023-05-10T06:54:05;12.90;;;1.00;;
15982;SDS011;14442;50.196;8.096;2023-05-10T06:56:31;7.70;;;1.00;;
15982;SDS011;14442;50.196;8.096;2023-05-10T06:58:58;6.10;;;1.07;;
15982;SDS011;14442;50.196;8.096;2023-05-10T07:01:25;9.73;;;2.20;;
15982;SDS011;14442;50.196;8.096;2023-05-10T07:03:51;11.27;;;5.10;;
15982;SDS011;14442;50.196;8.096;2023-05-10T07:06:18;31.93;;;25.17;;
15982;SDS011;14442;50.196;8.096;2023-05-10T07:08:45;69.73;;;53.80;;
15982;SDS011;14442;50.196;8.096;2023-05-10T07:11:13;99.40;;;82.07;;
15982;SDS011;14442;50.196;8.096;2023-05-10T07:13:39;100.87;;;88.40;;
15982;SDS011;14442;50.196;8.096;2023-05-10T07:16:09;97.93;;;84.50;;
15982;SDS011;14442;50.196;8.096;2023-05-10T07:18:36;91.77;;;80.33;;
15982;SDS011;14442;50.196;8.096;2023-05-10T07:21:02;82.07;;;72.83;;
15982;SDS011;14442;50.196;8.096;2023-05-10T07:23:29;73.60;;;65.67;;
15982;SDS011;14442;50.196;8.096;2023-05-10T07:25:56;68.10;;;60.77;;
15982;SDS011;14442;50.196;8.096;2023-05-10T07:28:24;63.60;;;56.77;;
15982;SDS011;14442;50.196;8.096;2023-05-10T07:30:51;60.73;;;53.60;;
15982;SDS011;14442;50.196;8.096;2023-05-10T07:33:18;58.00;;;51.40;;
15982;SDS011;14442;50.196;8.096;2023-05-10T07:35:44;57.07;;;47.03;;
15982;SDS011;14442;50.196;8.096;2023-05-10T07:38:11;52.30;;;46.10;;
15982;SDS011;14442;50.196;8.096;2023-05-10T07:40:38;52.13;;;46.00;;
15982;SDS011;14442;50.196;8.096;2023-05-10T07:43:05;49.10;;;43.23;;
15982;SDS011;14442;50.196;8.096;2023-05-10T07:45:34;43.73;;;39.10;;
15982;SDS011;14442;50.196;8.096;2023-05-10T07:48:00;42.87;;;37.87;;
15982;SDS011;14442;50.196;8.096;2023-05-10T07:50:27;45.77;;;38.13;;
15982;SDS011;14442;50.196;8.096;2023-05-10T07:52:54;39.53;;;35.03;;
15982;SDS011;14442;50.196;8.096;2023-05-10T07:55:20;41.10;;;33.87;;
15982;SDS011;14442;50.196;8.096;2023-05-10T07:57:47;38.80;;;31.63;;
15982;SDS011;14442;50.196;8.096;2023-05-10T08:00:16;36.13;;;30.80;;
15982;SDS011;14442;50.196;8.096;2023-05-10T08:02:46;32.03;;;27.27;;
15982;SDS011;14442;50.196;8.096;2023-05-10T08:05:13;24.40;;;18.57;;
15982;SDS011;14442;50.196;8.096;2023-05-10T08:07:40;17.73;;;15.30;;
15982;SDS011;14442;50.196;8.096;2023-05-10T08:10:08;22.30;;;15.20;;
15982;SDS011;14442;50.196;8.096;2023-05-10T08:12:35;22.63;;;13.97;;
15982;SDS011;14442;50.196;8.096;2023-05-10T08:15:02;16.77;;;13.50;;
15982;SDS011;14442;50.196;8.096;2023-05-10T08:17:30;18.20;;;12.20;;
15982;SDS011;14442;50.196;8.096;2023-05-10T08:19:58;16.50;;;10.50;;
15982;SDS011;14442;50.196;8.096;2023-05-10T08:22:24;13.33;;;9.90;;
15982;SDS011;14442;50.196;8.096;2023-05-10T08:24:51;16.77;;;10.73;;
15982;SDS011;14442;50.196;8.096;2023-05-10T08:27:18;14.90;;;9.57;;
15982;SDS011;14442;50.196;8.096;2023-05-10T08:29:44;15.83;;;9.47;;
15982;SDS011;14442;50.196;8.096;2023-05-10T08:32:11;16.97;;;9.50;;
15982;SDS011;14442;50.196;8.096;2023-05-10T08:34:37;14.13;;;8.93;;
15982;SDS011;14442;50.196;8.096;2023-05-10T08:37:06;19.93;;;7.93;;
15982;SDS011;14442;50.196;8.096;2023-05-10T08:39:33;11.33;;;6.90;;
15982;SDS011;14442;50.196;8.096;2023-05-10T08:42:01;15.50;;;7.70;;
15982;SDS011;14442;50.196;8.096;2023-05-10T08:44:30;15.63;;;7.70;;
15982;SDS011;14442;50.196;8.096;2023-05-10T08:46:58;12.40;;;6.00;;
15982;SDS011;14442;50.196;8.096;2023-05-10T08:49:28;15.83;;;7.00;;
15982;SDS011;14442;50.196;8.096;2023-05-10T08:51:57;9.67;;;5.57;;
15982;SDS011;14442;50.196;8.096;2023-05-10T08:54:29;12.20;;;5.23;;
15982;SDS011;14442;50.196;8.096;2023-05-10T08:56:57;6.87;;;5.10;;
15982;SDS011;14442;50.196;8.096;2023-05-10T08:59:24;9.60;;;4.67;;
15982;SDS011;14442;50.196;8.096;2023-05-10T09:01:50;11.60;;;5.30;;
15982;SDS011;14442;50.196;8.096;2023-05-10T09:04:18;7.20;;;4.83;;
15982;SDS011;14442;50.196;8.096;2023-05-10T09:06:46;7.27;;;4.43;;
15982;SDS011;14442;50.196;8.096;2023-05-10T09:09:12;6.87;;;4.33;;
15982;SDS011;14442;50.196;8.096;2023-05-10T09:11:41;6.23;;;4.00;;
15982;SDS011;14442;50.196;8.096;2023-05-10T09:14:08;6.57;;;3.83;;
15982;SDS011;14442;50.196;8.096;2023-05-10T09:16:35;6.40;;;3.90;;
15982;SDS011;14442;50.196;8.096;2023-05-10T09:19:02;7.77;;;3.60;;
15982;SDS011;14442;50.196;8.096;2023-05-10T09:21:29;7.30;;;3.33;;
15982;SDS011;14442;50.196;8.096;2023-05-10T09:23:57;6.73;;;3.97;;
15982;SDS011;14442;50.196;8.096;2023-05-10T09:26:28;10.43;;;3.13;;
15982;SDS011;14442;50.196;8.096;2023-05-10T09:28:57;2.83;;;2.37;;
15982;SDS011;14442;50.196;8.096;2023-05-10T09:31:24;6.00;;;2.90;;
15982;SDS011;14442;50.196;8.096;2023-05-10T09:34:09;4.63;;;2.90;;
15982;SDS011;14442;50.196;8.096;2023-05-10T09:36:36;5.63;;;2.77;;
15982;SDS011;14442;50.196;8.096;2023-05-10T09:39:15;4.47;;;2.33;;
15982;SDS011;14442;50.196;8.096;2023-05-10T09:41:41;8.00;;;2.17;;
15982;SDS011;14442;50.196;8.096;2023-05-10T09:44:10;11.90;;;2.90;;
15982;SDS011;14442;50.196;8.096;2023-05-10T09:46:36;7.27;;;2.10;;
15982;SDS011;14442;50.196;8.096;2023-05-10T09:49:03;6.00;;;2.13;;
15982;SDS011;14442;50.196;8.096;2023-05-10T09:51:31;3.73;;;2.10;;
15982;SDS011;14442;50.196;8.096;2023-05-10T09:54:08;8.57;;;2.57;;
15982;SDS011;14442;50.196;8.096;2023-05-10T09:56:36;16.13;;;2.60;;
15982;SDS011;14442;50.196;8.096;2023-05-10T09:59:05;8.90;;;2.37;;
15982;SDS011;14442;50.196;8.096;2023-05-10T10:01:34;5.40;;;1.97;;
15982;SDS011;14442;50.196;8.096;2023-05-10T10:04:02;7.40;;;2.40;;
15982;SDS011;14442;50.196;8.096;2023-05-10T10:06:34;10.60;;;2.20;;
15982;SDS011;14442;50.196;8.096;2023-05-10T10:09:02;8.57;;;2.10;;
15982;SDS011;14442;50.196;8.096;2023-05-10T10:11:29;6.30;;;2.00;;
15982;SDS011;14442;50.196;8.096;2023-05-10T10:13:56;6.13;;;1.57;;
15982;SDS011;14442;50.196;8.096;2023-05-10T10:16:23;9.13;;;2.17;;
15982;SDS011;14442;50.196;8.096;2023-05-10T10:18:52;3.37;;;1.80;;
15982;SDS011;14442;50.196;8.096;2023-05-10T10:21:19;7.30;;;2.00;;
15982;SDS011;14442;50.196;8.096;2023-05-10T10:23:46;3.03;;;1.47;;
15982;SDS011;14442;50.196;8.096;2023-05-10T10:26:13;7.67;;;1.67;;
15982;SDS011;14442;50.196;8.096;2023-05-10T10:28:40;8.07;;;1.70;;
15982;SDS011;14442;50.196;8.096;2023-05-10T10:31:17;6.93;;;1.57;;
15982;SDS011;14442;50.196;8.096;2023-05-10T10:33:59;7.43;;;1.67;;
15982;SDS011;14442;50.196;8.096;2023-05-10T10:36:27;6.53;;;1.83;;
15982;SDS011;14442;50.196;8.096;2023-05-10T10:38:58;5.03;;;1.40;;
15982;SDS011;14442;50.196;8.096;2023-05-10T10:41:30;5.37;;;1.10;;
15982;SDS011;14442;50.196;8.096;2023-05-10T10:47:22;5.80;;;1.37;;
15982;SDS011;14442;50.196;8.096;2023-05-10T10:49:51;10.10;;;1.50;;
15982;SDS011;14442;50.196;8.096;2023-05-10T10:52:30;4.20;;;1.67;;
15982;SDS011;14442;50.196;8.096;2023-05-10T10:54:59;6.53;;;1.20;;
15982;SDS011;14442;50.196;8.096;2023-05-10T10:57:28;5.03;;;0.90;;
15982;SDS011;14442;50.196;8.096;2023-05-10T11:02:48;10.13;;;1.40;;
15982;SDS011;14442;50.196;8.096;2023-05-10T11:05:33;6.60;;;1.40;;
15982;SDS011;14442;50.196;8.096;2023-05-10T11:08:09;9.53;;;1.43;;
15982;SDS011;14442;50.196;8.096;2023-05-10T11:10:37;6.33;;;1.33;;
15982;SDS011;14442;50.196;8.096;2023-05-10T11:13:05;1.23;;;0.60;;
15982;SDS011;14442;50.196;8.096;2023-05-10T11:15:33;3.97;;;0.90;;
15982;SDS011;14442;50.196;8.096;2023-05-10T11:18:16;3.40;;;1.00;;
15982;SDS011;14442;50.196;8.096;2023-05-10T11:20:45;1.67;;;0.70;;
15982;SDS011;14442;50.196;8.096;2023-05-10T11:23:16;2.50;;;0.70;;
15982;SDS011;14442;50.196;8.096;2023-05-10T11:25:44;3.67;;;1.03;;
15982;SDS011;14442;50.196;8.096;2023-05-10T11:28:12;2.07;;;0.77;;
15982;SDS011;14442;50.196;8.096;2023-05-10T11:30:39;1.37;;;0.87;;
15982;SDS011;14442;50.196;8.096;2023-05-10T11:33:07;3.50;;;0.83;;
15982;SDS011;14442;50.196;8.096;2023-05-10T11:35:37;2.03;;;0.80;;
15982;SDS011;14442;50.196;8.096;2023-05-10T11:38:06;5.60;;;0.87;;
15982;SDS011;14442;50.196;8.096;2023-05-10T11:40:33;3.93;;;0.70;;
15982;SDS011;14442;50.196;8.096;2023-05-10T11:43:00;5.17;;;0.60;;
15982;SDS011;14442;50.196;8.096;2023-05-10T11:45:27;1.37;;;0.50;;
15982;SDS011;14442;50.196;8.096;2023-05-10T11:47:56;5.90;;;0.60;;
15982;SDS011;14442;50.196;8.096;2023-05-10T11:50:23;5.47;;;0.83;;
15982;SDS011;14442;50.196;8.096;2023-05-10T11:52:51;6.70;;;1.60;;
15982;SDS011;14442;50.196;8.096;2023-05-10T11:55:19;4.40;;;0.60;;
15982;SDS011;14442;50.196;8.096;2023-05-10T11:57:46;2.50;;;0.77;;
15982;SDS011;14442;50.196;8.096;2023-05-10T12:00:13;3.23;;;0.80;;
15982;SDS011;14442;50.196;8.096;2023-05-10T12:02:40;4.27;;;0.80;;
15982;SDS011;14442;50.196;8.096;2023-05-10T12:05:07;7.30;;;0.63;;
15982;SDS011;14442;50.196;8.096;2023-05-10T12:07:35;6.27;;;0.63;;
15982;SDS011;14442;50.196;8.096;2023-05-10T12:10:02;4.77;;;0.50;;
15982;SDS011;14442;50.196;8.096;2023-05-10T12:12:40;7.33;;;1.00;;
15982;SDS011;14442;50.196;8.096;2023-05-10T12:15:11;5.73;;;0.80;;
15982;SDS011;14442;50.196;8.096;2023-05-10T12:17:38;6.53;;;0.60;;
15982;SDS011;14442;50.196;8.096;2023-05-10T12:20:15;7.23;;;0.70;;
15982;SDS011;14442;50.196;8.096;2023-05-10T12:22:44;5.40;;;0.80;;
15982;SDS011;14442;50.196;8.096;2023-05-10T12:25:12;6.17;;;0.80;;
15982;SDS011;14442;50.196;8.096;2023-05-10T12:27:40;3.03;;;0.63;;
15982;SDS011;14442;50.196;8.096;2023-05-10T12:30:13;3.73;;;0.67;;
15982;SDS011;14442;50.196;8.096;2023-05-10T12:32:45;5.83;;;0.60;;
15982;SDS011;14442;50.196;8.096;2023-05-10T12:35:12;3.20;;;0.67;;
15982;SDS011;14442;50.196;8.096;2023-05-10T12:37:38;5.13;;;0.60;;
15982;SDS011;14442;50.196;8.096;2023-05-10T12:40:05;1.23;;;0.33;;
15982;SDS011;14442;50.196;8.096;2023-05-10T12:42:34;3.63;;;0.80;;
15982;SDS011;14442;50.196;8.096;2023-05-10T12:45:03;3.00;;;1.03;;
15982;SDS011;14442;50.196;8.096;2023-05-10T12:47:30;7.40;;;0.57;;
15982;SDS011;14442;50.196;8.096;2023-05-10T12:49:57;4.27;;;0.83;;
15982;SDS011;14442;50.196;8.096;2023-05-10T12:52:24;1.87;;;0.50;;
15982;SDS011;14442;50.196;8.096;2023-05-10T12:54:51;3.53;;;0.50;;
15982;SDS011;14442;50.196;8.096;2023-05-10T12:57:19;2.97;;;0.33;;
15982;SDS011;14442;50.196;8.096;2023-05-10T12:59:46;3.57;;;0.37;;
15982;SDS011;14442;50.196;8.096;2023-05-10T13:02:14;4.40;;;0.40;;
15982;SDS011;14442;50.196;8.096;2023-05-10T13:04:43;3.57;;;0.70;;
15982;SDS011;14442;50.196;8.096;2023-05-10T13:07:09;2.70;;;0.50;;
15982;SDS011;14442;50.196;8.096;2023-05-10T13:09:36;5.20;;;0.50;;
15982;SDS011;14442;50.196;8.096;2023-05-10T13:12:03;2.93;;;0.80;;
15982;SDS011;14442;50.196;8.096;2023-05-10T13:14:30;2.30;;;0.50;;
15982;SDS011;14442;50.196;8.096;2023-05-10T13:16:57;1.63;;;0.23;;
15982;SDS011;14442;50.196;8.096;2023-05-10T13:19:25;4.87;;;0.83;;
15982;SDS011;14442;50.196;8.096;2023-05-10T13:21:52;1.93;;;0.47;;
15982;SDS011;14442;50.196;8.096;2023-05-10T13:24:18;1.13;;;0.33;;
15982;SDS011;14442;50.196;8.096;2023-05-10T13:26:45;2.47;;;0.40;;
15982;SDS011;14442;50.196;8.096;2023-05-10T13:29:12;7.20;;;1.17;;
15982;SDS011;14442;50.196;8.096;2023-05-10T13:31:38;4.70;;;0.90;;
15982;SDS011;14442;50.196;8.096;2023-05-10T13:34:05;10.23;;;1.13;;
15982;SDS011;14442;50.196;8.096;2023-05-10T13:36:33;6.57;;;0.80;;
15982;SDS011;14442;50.196;8.096;2023-05-10T13:39:00;8.10;;;0.77;;
15982;SDS011;14442;50.196;8.096;2023-05-10T13:41:28;5.37;;;0.77;;
15982;SDS011;14442;50.196;8.096;2023-05-10T13:43:55;5.27;;;0.63;;
15982;SDS011;14442;50.196;8.096;2023-05-10T13:46:21;6.93;;;1.10;;
15982;SDS011;14442;50.196;8.096;2023-05-10T13:48:48;5.23;;;0.93;;
15982;SDS011;14442;50.196;8.096;2023-05-10T13:51:15;6.70;;;1.10;;
15982;SDS011;14442;50.196;8.096;2023-05-10T13:53:43;7.03;;;0.63;;
15982;SDS011;14442;50.196;8.096;2023-05-10T13:56:09;1.23;;;0.30;;
15982;SDS011;14442;50.196;8.096;2023-05-10T13:58:36;0.60;;;0.40;;
15982;SDS011;14442;50.196;8.096;2023-05-10T14:01:03;1.63;;;0.40;;
15982;SDS011;14442;50.196;8.096;2023-05-10T14:03:30;3.60;;;0.30;;
15982;SDS011;14442;50.196;8.096;2023-05-10T14:05:57;1.30;;;0.20;;
15982;SDS011;14442;50.196;8.096;2023-05-10T14:08:24;0.93;;;0.20;;
15982;SDS011;14442;50.196;8.096;2023-05-10T14:10:53;3.27;;;0.30;;
15982;SDS011;14442;50.196;8.096;2023-05-10T14:13:21;1.83;;;0.30;;
15982;SDS011;14442;50.196;8.096;2023-05-10T14:15:48;3.17;;;0.50;;
15982;SDS011;14442;50.196;8.096;2023-05-10T14:18:14;2.70;;;0.60;;
15982;SDS011;14442;50.196;8.096;2023-05-10T14:20:41;4.70;;;0.33;;
15982;SDS011;14442;50.196;8.096;2023-05-10T14:23:08;8.93;;;0.60;;
15982;SDS011;14442;50.196;8.096;2023-05-10T14:25:34;4.40;;;0.70;;
15982;SDS011;14442;50.196;8.096;2023-05-10T14:28:04;3.47;;;0.40;;
15982;SDS011;14442;50.196;8.096;2023-05-10T14:30:31;10.27;;;0.77;;
15982;SDS011;14442;50.196;8.096;2023-05-10T14:32:59;14.30;;;1.20;;
15982;SDS011;14442;50.196;8.096;2023-05-10T14:35:26;16.93;;;1.80;;
15982;SDS011;14442;50.196;8.096;2023-05-10T14:37:52;3.50;;;0.60;;
15982;SDS011;14442;50.196;8.096;2023-05-10T14:40:20;6.80;;;1.17;;
15982;SDS011;14442;50.196;8.096;2023-05-10T14:42:46;6.67;;;0.77;;
15982;SDS011;14442;50.196;8.096;2023-05-10T14:45:14;5.17;;;0.67;;
15982;SDS011;14442;50.196;8.096;2023-05-10T14:47:41;7.37;;;0.60;;
15982;SDS011;14442;50.196;8.096;2023-05-10T14:50:08;8.13;;;0.80;;
15982;SDS011;14442;50.196;8.096;2023-05-10T14:52:35;10.57;;;1.03;;
15982;SDS011;14442;50.196;8.096;2023-05-10T14:55:01;6.17;;;0.90;;
15982;SDS011;14442;50.196;8.096;2023-05-10T14:57:28;5.93;;;1.00;;